sensor_id;sensor_type;location;lat;lon;timestamp;P1;durP1;ratioP1;P2;durP2;ratioP2
77589;SDS011;66746;51.328;12.332;2023-04-03T00:01:16;3.63;;;2.03;;
77589;SDS011;66746;51.328;12.332;2023-04-03T00:03:43;5.93;;;3.45;;
77589;SDS011;66746;51.328;12.332;2023-04-03T00:06:11;2.95;;;1.60;;
77589;SDS011;66746;51.328;12.332;2023-04-03T00:08:38;4.72;;;2.60;;
77589;SDS011;66746;51.328;12.332;2023-04-03T00:11:05;4.07;;;3.00;;
77589;SDS011;66746;51.328;12.332;2023-04-03T00:13:33;3.70;;;1.60;;
77589;SDS011;66746;51.328;12.332;2023-04-03T00:16:00;4.05;;;2.30;;
77589;SDS011;66746;51.328;12.332;2023-04-03T00:18:27;6.68;;;3.42;;
77589;SDS011;66746;51.328;12.332;2023-04-03T00:20:53;3.05;;;2.85;;
77589;SDS011;66746;51.328;12.332;2023-04-03T00:23:21;3.20;;;1.70;;
77589;SDS011;66746;51.328;12.332;2023-04-03T00:25:47;6.22;;;2.22;;
77589;SDS011;66746;51.328;12.332;2023-04-03T00:28:14;4.07;;;2.92;;
77589;SDS011;66746;51.328;12.332;2023-04-03T00:30:41;4.63;;;2.85;;
77589;SDS011;66746;51.328;12.332;2023-04-03T00:33:08;6.28;;;3.05;;
77589;SDS011;66746;51.328;12.332;2023-04-03T00:35:37;6.18;;;2.58;;
77589;SDS011;66746;51.328;12.332;2023-04-03T00:38:04;3.35;;;2.70;;
77589;SDS011;66746;51.328;12.332;2023-04-03T00:40:33;2.63;;;2.10;;
77589;SDS011;66746;51.328;12.332;2023-04-03T00:43:05;2.03;;;1.25;;
77589;SDS011;66746;51.328;12.332;2023-04-03T00:45:38;5.78;;;2.92;;
77589;SDS011;66746;51.328;12.332;2023-04-03T00:48:07;4.13;;;1.58;;
77589;SDS011;66746;51.328;12.332;2023-04-03T00:50:38;4.85;;;2.42;;
77589;SDS011;66746;51.328;12.332;2023-04-03T00:53:07;2.70;;;1.20;;
77589;SDS011;66746;51.328;12.332;2023-04-03T00:55:38;4.03;;;2.45;;
77589;SDS011;66746;51.328;12.332;2023-04-03T00:58:06;6.03;;;3.75;;
77589;SDS011;66746;51.328;12.332;2023-04-03T01:00:33;6.72;;;2.78;;
77589;SDS011;66746;51.328;12.332;2023-04-03T01:03:04;4.85;;;4.10;;
77589;SDS011;66746;51.328;12.332;2023-04-03T01:05:31;3.17;;;1.55;;
77589;SDS011;66746;51.328;12.332;2023-04-03T01:07:58;3.65;;;3.35;;
77589;SDS011;66746;51.328;12.332;2023-04-03T01:10:27;2.80;;;2.15;;
77589;SDS011;66746;51.328;12.332;2023-04-03T01:12:55;4.78;;;3.45;;
77589;SDS011;66746;51.328;12.332;2023-04-03T01:15:23;3.40;;;3.20;;
77589;SDS011;66746;51.328;12.332;2023-04-03T01:17:51;4.80;;;3.08;;
77589;SDS011;66746;51.328;12.332;2023-04-03T01:20:24;3.50;;;3.22;;
77589;SDS011;66746;51.328;12.332;2023-04-03T01:23:22;8.88;;;2.78;;
77589;SDS011;66746;51.328;12.332;2023-04-03T01:25:56;6.55;;;1.45;;
77589;SDS011;66746;51.328;12.332;2023-04-03T01:28:25;3.88;;;3.58;;
77589;SDS011;66746;51.328;12.332;2023-04-03T01:30:56;3.40;;;2.15;;
77589;SDS011;66746;51.328;12.332;2023-04-03T01:33:33;5.47;;;2.70;;
77589;SDS011;66746;51.328;12.332;2023-04-03T01:36:00;2.97;;;1.92;;
77589;SDS011;66746;51.328;12.332;2023-04-03T01:38:28;4.75;;;2.08;;
77589;SDS011;66746;51.328;12.332;2023-04-03T01:40:55;3.28;;;1.58;;
77589;SDS011;66746;51.328;12.332;2023-04-03T01:43:22;2.85;;;2.05;;
77589;SDS011;66746;51.328;12.332;2023-04-03T01:45:49;4.15;;;2.55;;
77589;SDS011;66746;51.328;12.332;2023-04-03T01:48:16;5.15;;;1.33;;
77589;SDS011;66746;51.328;12.332;2023-04-03T01:50:44;5.05;;;3.38;;
77589;SDS011;66746;51.328;12.332;2023-04-03T01:53:11;4.25;;;3.20;;
77589;SDS011;66746;51.328;12.332;2023-04-03T01:55:37;4.07;;;3.63;;
77589;SDS011;66746;51.328;12.332;2023-04-03T01:58:04;3.72;;;3.22;;
77589;SDS011;66746;51.328;12.332;2023-04-03T02:00:30;4.22;;;2.30;;
77589;SDS011;66746;51.328;12.332;2023-04-03T02:02:57;3.17;;;1.83;;
77589;SDS011;66746;51.328;12.332;2023-04-03T02:05:24;4.47;;;3.78;;
77589;SDS011;66746;51.328;12.332;2023-04-03T02:07:52;3.25;;;1.73;;
77589;SDS011;66746;51.328;12.332;2023-04-03T02:10:19;5.03;;;2.35;;
77589;SDS011;66746;51.328;12.332;2023-04-03T02:12:45;8.32;;;3.92;;
77589;SDS011;66746;51.328;12.332;2023-04-03T02:15:12;3.47;;;3.08;;
77589;SDS011;66746;51.328;12.332;2023-04-03T02:17:38;5.20;;;3.58;;
77589;SDS011;66746;51.328;12.332;2023-04-03T02:20:05;7.57;;;3.63;;
77589;SDS011;66746;51.328;12.332;2023-04-03T02:22:33;2.85;;;2.22;;
77589;SDS011;66746;51.328;12.332;2023-04-03T02:25:01;3.88;;;2.88;;
77589;SDS011;66746;51.328;12.332;2023-04-03T02:27:28;4.05;;;3.63;;
77589;SDS011;66746;51.328;12.332;2023-04-03T02:29:54;4.00;;;3.47;;
77589;SDS011;66746;51.328;12.332;2023-04-03T02:32:21;3.95;;;3.35;;
77589;SDS011;66746;51.328;12.332;2023-04-03T02:34:47;5.20;;;2.72;;
77589;SDS011;66746;51.328;12.332;2023-04-03T02:37:14;3.28;;;1.83;;
77589;SDS011;66746;51.328;12.332;2023-04-03T02:39:43;2.65;;;2.38;;
77589;SDS011;66746;51.328;12.332;2023-04-03T02:42:11;4.50;;;4.20;;
77589;SDS011;66746;51.328;12.332;2023-04-03T02:44:38;4.80;;;3.50;;
77589;SDS011;66746;51.328;12.332;2023-04-03T02:47:04;3.58;;;2.28;;
77589;SDS011;66746;51.328;12.332;2023-04-03T02:49:32;5.70;;;2.70;;
77589;SDS011;66746;51.328;12.332;2023-04-03T02:51:58;2.88;;;2.03;;
77589;SDS011;66746;51.328;12.332;2023-04-03T02:54:25;3.05;;;2.85;;
77589;SDS011;66746;51.328;12.332;2023-04-03T02:56:53;3.90;;;2.20;;
77589;SDS011;66746;51.328;12.332;2023-04-03T02:59:21;4.00;;;3.70;;
77589;SDS011;66746;51.328;12.332;2023-04-03T03:01:48;3.97;;;2.17;;
77589;SDS011;66746;51.328;12.332;2023-04-03T03:04:15;3.60;;;2.75;;
77589;SDS011;66746;51.328;12.332;2023-04-03T03:06:41;3.25;;;2.28;;
77589;SDS011;66746;51.328;12.332;2023-04-03T03:09:10;5.68;;;2.35;;
77589;SDS011;66746;51.328;12.332;2023-04-03T03:11:36;5.25;;;2.13;;
77589;SDS011;66746;51.328;12.332;2023-04-03T03:14:03;4.55;;;4.05;;
77589;SDS011;66746;51.328;12.332;2023-04-03T03:16:31;3.80;;;1.58;;
77589;SDS011;66746;51.328;12.332;2023-04-03T03:18:57;4.97;;;3.92;;
77589;SDS011;66746;51.328;12.332;2023-04-03T03:21:24;6.18;;;4.07;;
77589;SDS011;66746;51.328;12.332;2023-04-03T03:23:51;7.00;;;4.45;;
77589;SDS011;66746;51.328;12.332;2023-04-03T03:26:17;5.50;;;3.40;;
77589;SDS011;66746;51.328;12.332;2023-04-03T03:28:44;2.88;;;1.60;;
77589;SDS011;66746;51.328;12.332;2023-04-03T03:31:11;6.70;;;3.42;;
77589;SDS011;66746;51.328;12.332;2023-04-03T03:33:40;4.97;;;2.10;;
77589;SDS011;66746;51.328;12.332;2023-04-03T03:36:07;4.10;;;3.67;;
77589;SDS011;66746;51.328;12.332;2023-04-03T03:38:35;5.82;;;1.85;;
77589;SDS011;66746;51.328;12.332;2023-04-03T03:41:01;4.35;;;3.92;;
77589;SDS011;66746;51.328;12.332;2023-04-03T03:43:29;7.05;;;3.60;;
77589;SDS011;66746;51.328;12.332;2023-04-03T03:45:56;3.63;;;1.70;;
77589;SDS011;66746;51.328;12.332;2023-04-03T03:48:24;3.08;;;2.80;;
77589;SDS011;66746;51.328;12.332;2023-04-03T03:50:52;3.65;;;2.10;;
77589;SDS011;66746;51.328;12.332;2023-04-03T03:53:22;5.50;;;2.70;;
77589;SDS011;66746;51.328;12.332;2023-04-03T03:55:52;4.35;;;3.83;;
77589;SDS011;66746;51.328;12.332;2023-04-03T03:58:21;5.43;;;2.30;;
77589;SDS011;66746;51.328;12.332;2023-04-03T04:00:47;5.35;;;3.45;;
77589;SDS011;66746;51.328;12.332;2023-04-03T04:03:14;4.18;;;3.88;;
77589;SDS011;66746;51.328;12.332;2023-04-03T04:05:43;3.80;;;1.65;;
77589;SDS011;66746;51.328;12.332;2023-04-03T04:08:12;5.07;;;3.42;;
77589;SDS011;66746;51.328;12.332;2023-04-03T04:10:38;2.75;;;1.35;;
77589;SDS011;66746;51.328;12.332;2023-04-03T04:13:06;7.15;;;4.05;;
77589;SDS011;66746;51.328;12.332;2023-04-03T04:15:33;3.25;;;2.60;;
77589;SDS011;66746;51.328;12.332;2023-04-03T04:18:00;3.97;;;3.40;;
77589;SDS011;66746;51.328;12.332;2023-04-03T04:20:26;7.30;;;2.03;;
77589;SDS011;66746;51.328;12.332;2023-04-03T04:22:53;3.92;;;2.55;;
77589;SDS011;66746;51.328;12.332;2023-04-03T04:25:22;5.72;;;3.25;;
77589;SDS011;66746;51.328;12.332;2023-04-03T04:27:49;3.88;;;2.63;;
77589;SDS011;66746;51.328;12.332;2023-04-03T04:30:16;6.10;;;2.28;;
77589;SDS011;66746;51.328;12.332;2023-04-03T04:32:45;5.93;;;2.15;;
77589;SDS011;66746;51.328;12.332;2023-04-03T04:35:13;5.22;;;3.70;;
77589;SDS011;66746;51.328;12.332;2023-04-03T04:37:44;6.88;;;2.30;;
77589;SDS011;66746;51.328;12.332;2023-04-03T04:40:11;3.75;;;3.30;;
77589;SDS011;66746;51.328;12.332;2023-04-03T04:42:39;3.95;;;2.15;;
77589;SDS011;66746;51.328;12.332;2023-04-03T04:45:06;6.80;;;2.95;;
77589;SDS011;66746;51.328;12.332;2023-04-03T04:47:33;10.40;;;4.85;;
77589;SDS011;66746;51.328;12.332;2023-04-03T04:50:03;13.55;;;8.05;;
77589;SDS011;66746;51.328;12.332;2023-04-03T04:52:31;13.63;;;8.15;;
77589;SDS011;66746;51.328;12.332;2023-04-03T04:54:58;16.42;;;8.80;;
77589;SDS011;66746;51.328;12.332;2023-04-03T04:57:25;11.85;;;5.93;;
77589;SDS011;66746;51.328;12.332;2023-04-03T04:59:54;13.77;;;7.65;;
77589;SDS011;66746;51.328;12.332;2023-04-03T05:02:20;11.95;;;4.88;;
77589;SDS011;66746;51.328;12.332;2023-04-03T05:04:47;11.52;;;4.50;;
77589;SDS011;66746;51.328;12.332;2023-04-03T05:07:18;7.30;;;3.95;;
77589;SDS011;66746;51.328;12.332;2023-04-03T05:09:45;8.35;;;4.15;;
77589;SDS011;66746;51.328;12.332;2023-04-03T05:12:13;8.60;;;4.70;;
77589;SDS011;66746;51.328;12.332;2023-04-03T05:14:46;7.95;;;5.45;;
77589;SDS011;66746;51.328;12.332;2023-04-03T05:17:14;7.13;;;3.05;;
77589;SDS011;66746;51.328;12.332;2023-04-03T05:19:46;7.53;;;4.38;;
77589;SDS011;66746;51.328;12.332;2023-04-03T05:22:13;5.13;;;3.30;;
77589;SDS011;66746;51.328;12.332;2023-04-03T05:24:40;8.40;;;3.75;;
77589;SDS011;66746;51.328;12.332;2023-04-03T05:27:07;4.70;;;3.60;;
77589;SDS011;66746;51.328;12.332;2023-04-03T05:29:38;4.32;;;3.45;;
77589;SDS011;66746;51.328;12.332;2023-04-03T05:32:04;10.10;;;5.45;;
77589;SDS011;66746;51.328;12.332;2023-04-03T05:34:32;9.32;;;4.93;;
77589;SDS011;66746;51.328;12.332;2023-04-03T05:36:59;11.27;;;7.15;;
77589;SDS011;66746;51.328;12.332;2023-04-03T05:39:26;9.55;;;6.82;;
77589;SDS011;66746;51.328;12.332;2023-04-03T05:41:53;7.50;;;4.22;;
77589;SDS011;66746;51.328;12.332;2023-04-03T05:44:20;5.80;;;5.30;;
77589;SDS011;66746;51.328;12.332;2023-04-03T05:46:48;6.47;;;5.82;;
77589;SDS011;66746;51.328;12.332;2023-04-03T05:49:15;8.30;;;6.25;;
77589;SDS011;66746;51.328;12.332;2023-04-03T05:51:43;9.85;;;6.80;;
77589;SDS011;66746;51.328;12.332;2023-04-03T05:54:18;8.20;;;7.00;;
77589;SDS011;66746;51.328;12.332;2023-04-03T05:56:48;5.97;;;5.35;;
77589;SDS011;66746;51.328;12.332;2023-04-03T05:59:15;9.40;;;3.67;;
77589;SDS011;66746;51.328;12.332;2023-04-03T06:01:42;5.85;;;5.10;;
77589;SDS011;66746;51.328;12.332;2023-04-03T06:04:09;8.65;;;6.68;;
77589;SDS011;66746;51.328;12.332;2023-04-03T06:06:45;6.20;;;4.85;;
77589;SDS011;66746;51.328;12.332;2023-04-03T06:09:13;6.53;;;5.93;;
77589;SDS011;66746;51.328;12.332;2023-04-03T06:11:39;7.10;;;3.58;;
77589;SDS011;66746;51.328;12.332;2023-04-03T06:14:06;5.30;;;4.10;;
77589;SDS011;66746;51.328;12.332;2023-04-03T06:16:33;10.20;;;5.32;;
77589;SDS011;66746;51.328;12.332;2023-04-03T06:19:02;5.72;;;4.45;;
77589;SDS011;66746;51.328;12.332;2023-04-03T06:21:28;12.10;;;7.18;;
77589;SDS011;66746;51.328;12.332;2023-04-03T06:23:56;7.30;;;5.57;;
77589;SDS011;66746;51.328;12.332;2023-04-03T06:26:23;9.63;;;6.63;;
77589;SDS011;66746;51.328;12.332;2023-04-03T06:28:49;7.43;;;5.05;;
77589;SDS011;66746;51.328;12.332;2023-04-03T06:31:16;5.72;;;4.95;;
77589;SDS011;66746;51.328;12.332;2023-04-03T06:33:42;9.98;;;4.88;;
77589;SDS011;66746;51.328;12.332;2023-04-03T06:36:09;11.50;;;6.63;;
77589;SDS011;66746;51.328;12.332;2023-04-03T06:38:37;12.93;;;10.90;;
77589;SDS011;66746;51.328;12.332;2023-04-03T06:41:05;11.82;;;9.52;;
77589;SDS011;66746;51.328;12.332;2023-04-03T06:43:31;10.98;;;7.97;;
77589;SDS011;66746;51.328;12.332;2023-04-03T06:46:00;11.98;;;7.38;;
77589;SDS011;66746;51.328;12.332;2023-04-03T06:48:26;8.07;;;7.20;;
77589;SDS011;66746;51.328;12.332;2023-04-03T06:50:53;12.45;;;8.77;;
77589;SDS011;66746;51.328;12.332;2023-04-03T06:53:19;10.70;;;6.32;;
77589;SDS011;66746;51.328;12.332;2023-04-03T06:55:46;8.60;;;7.10;;
77589;SDS011;66746;51.328;12.332;2023-04-03T06:58:13;10.02;;;7.15;;
77589;SDS011;66746;51.328;12.332;2023-04-03T07:00:40;10.43;;;6.72;;
77589;SDS011;66746;51.328;12.332;2023-04-03T07:03:07;16.15;;;11.50;;
77589;SDS011;66746;51.328;12.332;2023-04-03T07:05:33;12.48;;;11.02;;
77589;SDS011;66746;51.328;12.332;2023-04-03T07:08:00;13.40;;;9.07;;
77589;SDS011;66746;51.328;12.332;2023-04-03T07:10:26;12.32;;;9.48;;
77589;SDS011;66746;51.328;12.332;2023-04-03T07:12:53;13.73;;;8.13;;
77589;SDS011;66746;51.328;12.332;2023-04-03T07:15:21;8.65;;;6.18;;
77589;SDS011;66746;51.328;12.332;2023-04-03T07:17:47;8.32;;;6.70;;
77589;SDS011;66746;51.328;12.332;2023-04-03T07:20:14;7.82;;;7.03;;
77589;SDS011;66746;51.328;12.332;2023-04-03T07:22:40;9.00;;;4.70;;
77589;SDS011;66746;51.328;12.332;2023-04-03T07:25:07;6.75;;;5.85;;
77589;SDS011;66746;51.328;12.332;2023-04-03T07:27:34;6.28;;;5.68;;
77589;SDS011;66746;51.328;12.332;2023-04-03T07:30:00;6.82;;;4.13;;
77589;SDS011;66746;51.328;12.332;2023-04-03T07:32:28;8.73;;;5.28;;
77589;SDS011;66746;51.328;12.332;2023-04-03T07:34:55;8.13;;;5.55;;
77589;SDS011;66746;51.328;12.332;2023-04-03T07:37:21;4.93;;;2.75;;
77589;SDS011;66746;51.328;12.332;2023-04-03T07:43:17;5.38;;;3.00;;
77589;SDS011;66746;51.328;12.332;2023-04-03T07:45:44;5.55;;;2.88;;
77589;SDS011;66746;51.328;12.332;2023-04-03T07:48:12;7.65;;;4.93;;
77589;SDS011;66746;51.328;12.332;2023-04-03T07:50:39;5.40;;;4.20;;
77589;SDS011;66746;51.328;12.332;2023-04-03T07:53:06;6.78;;;5.18;;
77589;SDS011;66746;51.328;12.332;2023-04-03T07:55:32;7.68;;;3.58;;
77589;SDS011;66746;51.328;12.332;2023-04-03T07:58:00;6.28;;;5.68;;
77589;SDS011;66746;51.328;12.332;2023-04-03T08:00:26;8.68;;;5.05;;
77589;SDS011;66746;51.328;12.332;2023-04-03T08:02:53;5.35;;;4.85;;
77589;SDS011;66746;51.328;12.332;2023-04-03T08:05:21;5.20;;;3.55;;
77589;SDS011;66746;51.328;12.332;2023-04-03T08:07:48;5.90;;;3.00;;
77589;SDS011;66746;51.328;12.332;2023-04-03T08:10:14;9.68;;;3.60;;
77589;SDS011;66746;51.328;12.332;2023-04-03T08:12:41;5.72;;;3.95;;
77589;SDS011;66746;51.328;12.332;2023-04-03T08:15:08;4.38;;;3.75;;
77589;SDS011;66746;51.328;12.332;2023-04-03T08:17:35;6.65;;;5.13;;
77589;SDS011;66746;51.328;12.332;2023-04-03T08:20:02;3.92;;;2.30;;
77589;SDS011;66746;51.328;12.332;2023-04-03T08:22:30;3.53;;;3.22;;
77589;SDS011;66746;51.328;12.332;2023-04-03T08:24:57;4.57;;;4.07;;
77589;SDS011;66746;51.328;12.332;2023-04-03T08:27:25;7.38;;;4.55;;
77589;SDS011;66746;51.328;12.332;2023-04-03T08:29:54;5.38;;;4.03;;
77589;SDS011;66746;51.328;12.332;2023-04-03T08:32:21;3.88;;;1.77;;
77589;SDS011;66746;51.328;12.332;2023-04-03T08:34:47;3.55;;;2.83;;
77589;SDS011;66746;51.328;12.332;2023-04-03T08:37:13;5.93;;;3.20;;
77589;SDS011;66746;51.328;12.332;2023-04-03T08:39:41;4.40;;;3.50;;
77589;SDS011;66746;51.328;12.332;2023-04-03T08:42:12;3.70;;;3.13;;
77589;SDS011;66746;51.328;12.332;2023-04-03T08:44:45;3.20;;;2.72;;
77589;SDS011;66746;51.328;12.332;2023-04-03T08:47:18;4.55;;;2.85;;
77589;SDS011;66746;51.328;12.332;2023-04-03T08:49:51;4.95;;;3.20;;
77589;SDS011;66746;51.328;12.332;2023-04-03T08:52:20;2.85;;;2.55;;
77589;SDS011;66746;51.328;12.332;2023-04-03T08:57:29;2.95;;;2.75;;
77589;SDS011;66746;51.328;12.332;2023-04-03T09:00:00;3.40;;;2.75;;
77589;SDS011;66746;51.328;12.332;2023-04-03T09:02:33;3.92;;;3.28;;
77589;SDS011;66746;51.328;12.332;2023-04-03T09:05:09;3.67;;;3.33;;
77589;SDS011;66746;51.328;12.332;2023-04-03T09:07:39;3.92;;;2.38;;
77589;SDS011;66746;51.328;12.332;2023-04-03T09:10:15;6.68;;;3.25;;
77589;SDS011;66746;51.328;12.332;2023-04-03T09:12:49;4.63;;;4.28;;
77589;SDS011;66746;51.328;12.332;2023-04-03T09:15:22;3.28;;;2.40;;
77589;SDS011;66746;51.328;12.332;2023-04-03T09:18:04;3.72;;;3.33;;
77589;SDS011;66746;51.328;12.332;2023-04-03T09:20:39;3.95;;;3.33;;
77589;SDS011;66746;51.328;12.332;2023-04-03T09:23:14;2.70;;;2.38;;
77589;SDS011;66746;51.328;12.332;2023-04-03T09:25:47;2.90;;;2.70;;
77589;SDS011;66746;51.328;12.332;2023-04-03T09:28:16;3.75;;;3.45;;
77589;SDS011;66746;51.328;12.332;2023-04-03T09:30:42;3.85;;;2.03;;
77589;SDS011;66746;51.328;12.332;2023-04-03T09:33:09;3.15;;;2.88;;
77589;SDS011;66746;51.328;12.332;2023-04-03T09:35:37;3.50;;;2.40;;
77589;SDS011;66746;51.328;12.332;2023-04-03T09:38:15;2.60;;;2.42;;
77589;SDS011;66746;51.328;12.332;2023-04-03T09:40:44;3.20;;;2.55;;
77589;SDS011;66746;51.328;12.332;2023-04-03T09:43:20;3.85;;;2.58;;
77589;SDS011;66746;51.328;12.332;2023-04-03T09:45:49;2.72;;;2.50;;
77589;SDS011;66746;51.328;12.332;2023-04-03T09:48:17;3.72;;;2.25;;
77589;SDS011;66746;51.328;12.332;2023-04-03T09:50:54;6.35;;;2.72;;
77589;SDS011;66746;51.328;12.332;2023-04-03T09:53:29;2.55;;;2.33;;
77589;SDS011;66746;51.328;12.332;2023-04-03T09:56:02;3.70;;;2.28;;
77589;SDS011;66746;51.328;12.332;2023-04-03T09:58:32;7.25;;;3.58;;
77589;SDS011;66746;51.328;12.332;2023-04-03T10:01:23;5.55;;;2.90;;
77589;SDS011;66746;51.328;12.332;2023-04-03T10:04:02;4.18;;;2.58;;
77589;SDS011;66746;51.328;12.332;2023-04-03T10:06:31;5.25;;;3.30;;
77589;SDS011;66746;51.328;12.332;2023-04-03T10:09:00;2.65;;;2.42;;
77589;SDS011;66746;51.328;12.332;2023-04-03T10:11:28;3.63;;;3.10;;
77589;SDS011;66746;51.328;12.332;2023-04-03T10:13:56;3.47;;;2.65;;
77589;SDS011;66746;51.328;12.332;2023-04-03T10:16:25;2.17;;;1.25;;
77589;SDS011;66746;51.328;12.332;2023-04-03T10:19:02;3.30;;;2.35;;
77589;SDS011;66746;51.328;12.332;2023-04-03T10:21:38;3.65;;;2.90;;
77589;SDS011;66746;51.328;12.332;2023-04-03T10:24:11;2.28;;;1.27;;
77589;SDS011;66746;51.328;12.332;2023-04-03T10:26:45;4.55;;;3.03;;
77589;SDS011;66746;51.328;12.332;2023-04-03T10:29:23;4.38;;;3.90;;
77589;SDS011;66746;51.328;12.332;2023-04-03T10:31:59;3.03;;;2.72;;
77589;SDS011;66746;51.328;12.332;2023-04-03T10:34:38;3.03;;;2.75;;
77589;SDS011;66746;51.328;12.332;2023-04-03T10:37:10;3.63;;;1.83;;
77589;SDS011;66746;51.328;12.332;2023-04-03T10:39:46;4.22;;;2.63;;
77589;SDS011;66746;51.328;12.332;2023-04-03T10:42:22;4.40;;;1.55;;
77589;SDS011;66746;51.328;12.332;2023-04-03T10:45:18;2.15;;;1.13;;
77589;SDS011;66746;51.328;12.332;2023-04-03T10:47:52;3.22;;;2.90;;
77589;SDS011;66746;51.328;12.332;2023-04-03T10:50:30;3.47;;;2.28;;
77589;SDS011;66746;51.328;12.332;2023-04-03T10:53:06;3.00;;;2.67;;
77589;SDS011;66746;51.328;12.332;2023-04-03T10:55:41;4.68;;;1.52;;
77589;SDS011;66746;51.328;12.332;2023-04-03T10:58:16;6.18;;;3.22;;
77589;SDS011;66746;51.328;12.332;2023-04-03T11:00:48;5.22;;;2.60;;
77589;SDS011;66746;51.328;12.332;2023-04-03T11:03:22;4.38;;;2.28;;
77589;SDS011;66746;51.328;12.332;2023-04-03T11:05:55;3.08;;;2.30;;
77589;SDS011;66746;51.328;12.332;2023-04-03T11:08:24;3.08;;;2.78;;
77589;SDS011;66746;51.328;12.332;2023-04-03T11:10:55;2.53;;;1.30;;
77589;SDS011;66746;51.328;12.332;2023-04-03T11:13:27;4.95;;;2.90;;
77589;SDS011;66746;51.328;12.332;2023-04-03T11:16:00;3.80;;;2.47;;
77589;SDS011;66746;51.328;12.332;2023-04-03T11:18:31;3.15;;;2.55;;
77589;SDS011;66746;51.328;12.332;2023-04-03T11:21:04;3.70;;;3.40;;
77589;SDS011;66746;51.328;12.332;2023-04-03T11:23:35;3.20;;;2.92;;
77589;SDS011;66746;51.328;12.332;2023-04-03T11:26:15;4.30;;;2.72;;
77589;SDS011;66746;51.328;12.332;2023-04-03T11:28:43;3.90;;;2.90;;
77589;SDS011;66746;51.328;12.332;2023-04-03T11:31:23;4.57;;;2.63;;
77589;SDS011;66746;51.328;12.332;2023-04-03T11:34:03;3.88;;;3.53;;
77589;SDS011;66746;51.328;12.332;2023-04-03T11:36:39;2.92;;;2.60;;
77589;SDS011;66746;51.328;12.332;2023-04-03T11:39:10;3.35;;;2.83;;
77589;SDS011;66746;51.328;12.332;2023-04-03T11:41:44;3.95;;;3.42;;
77589;SDS011;66746;51.328;12.332;2023-04-03T11:44:25;2.72;;;2.53;;
77589;SDS011;66746;51.328;12.332;2023-04-03T11:47:01;3.15;;;2.55;;
77589;SDS011;66746;51.328;12.332;2023-04-03T11:58:20;3.28;;;2.97;;
77589;SDS011;66746;51.328;12.332;2023-04-03T12:00:50;3.45;;;2.75;;
77589;SDS011;66746;51.328;12.332;2023-04-03T12:12:57;5.07;;;2.90;;
77589;SDS011;66746;51.328;12.332;2023-04-03T12:15:37;3.65;;;1.45;;
77589;SDS011;66746;51.328;12.332;2023-04-03T12:21:23;5.30;;;2.25;;
77589;SDS011;66746;51.328;12.332;2023-04-03T12:24:03;2.33;;;1.67;;
77589;SDS011;66746;51.328;12.332;2023-04-03T12:26:50;3.65;;;2.28;;
77589;SDS011;66746;51.328;12.332;2023-04-03T12:29:29;4.40;;;4.15;;
77589;SDS011;66746;51.328;12.332;2023-04-03T12:32:05;3.88;;;2.67;;
77589;SDS011;66746;51.328;12.332;2023-04-03T12:34:49;2.92;;;2.72;;
77589;SDS011;66746;51.328;12.332;2023-04-03T12:37:24;3.38;;;3.08;;
77589;SDS011;66746;51.328;12.332;2023-04-03T12:40:09;3.35;;;3.05;;
77589;SDS011;66746;51.328;12.332;2023-04-03T12:42:51;2.80;;;2.60;;
77589;SDS011;66746;51.328;12.332;2023-04-03T12:45:29;3.35;;;3.10;;
77589;SDS011;66746;51.328;12.332;2023-04-03T12:48:10;3.35;;;1.90;;
77589;SDS011;66746;51.328;12.332;2023-04-03T12:50:41;3.85;;;3.05;;
77589;SDS011;66746;51.328;12.332;2023-04-03T12:53:11;2.75;;;1.48;;
77589;SDS011;66746;51.328;12.332;2023-04-03T12:55:39;5.43;;;3.10;;
77589;SDS011;66746;51.328;12.332;2023-04-03T12:58:21;3.65;;;3.35;;
77589;SDS011;66746;51.328;12.332;2023-04-03T13:00:58;4.47;;;4.03;;
77589;SDS011;66746;51.328;12.332;2023-04-03T13:03:26;3.25;;;2.95;;
77589;SDS011;66746;51.328;12.332;2023-04-03T13:05:54;3.80;;;3.50;;
77589;SDS011;66746;51.328;12.332;2023-04-03T13:08:23;4.45;;;3.80;;
77589;SDS011;66746;51.328;12.332;2023-04-03T13:10:53;4.63;;;3.63;;
77589;SDS011;66746;51.328;12.332;2023-04-03T13:13:24;5.35;;;2.63;;
77589;SDS011;66746;51.328;12.332;2023-04-03T13:15:51;2.78;;;2.00;;
77589;SDS011;66746;51.328;12.332;2023-04-03T13:18:22;3.97;;;3.60;;
77589;SDS011;66746;51.328;12.332;2023-04-03T13:20:53;2.83;;;2.50;;
77589;SDS011;66746;51.328;12.332;2023-04-03T13:23:25;4.57;;;3.05;;
77589;SDS011;66746;51.328;12.332;2023-04-03T13:25:51;4.97;;;3.33;;
77589;SDS011;66746;51.328;12.332;2023-04-03T13:28:20;3.67;;;3.47;;
77589;SDS011;66746;51.328;12.332;2023-04-03T13:30:57;3.83;;;3.13;;
77589;SDS011;66746;51.328;12.332;2023-04-03T13:33:28;2.85;;;2.65;;
77589;SDS011;66746;51.328;12.332;2023-04-03T13:35:58;3.83;;;3.42;;
77589;SDS011;66746;51.328;12.332;2023-04-03T13:38:29;4.03;;;3.72;;
77589;SDS011;66746;51.328;12.332;2023-04-03T13:40:58;4.68;;;3.28;;
77589;SDS011;66746;51.328;12.332;2023-04-03T13:43:27;2.80;;;2.55;;
77589;SDS011;66746;51.328;12.332;2023-04-03T13:45:58;3.20;;;2.90;;
77589;SDS011;66746;51.328;12.332;2023-04-03T13:48:28;6.20;;;3.25;;
77589;SDS011;66746;51.328;12.332;2023-04-03T13:51:02;6.78;;;3.00;;
77589;SDS011;66746;51.328;12.332;2023-04-03T13:53:30;3.80;;;2.83;;
77589;SDS011;66746;51.328;12.332;2023-04-03T13:56:04;3.08;;;2.88;;
77589;SDS011;66746;51.328;12.332;2023-04-03T13:58:33;4.57;;;4.18;;
77589;SDS011;66746;51.328;12.332;2023-04-03T14:01:08;3.75;;;3.33;;
77589;SDS011;66746;51.328;12.332;2023-04-03T14:03:39;3.15;;;2.95;;
77589;SDS011;66746;51.328;12.332;2023-04-03T14:06:12;3.42;;;3.13;;
77589;SDS011;66746;51.328;12.332;2023-04-03T14:08:39;4.03;;;3.72;;
77589;SDS011;66746;51.328;12.332;2023-04-03T14:11:11;3.60;;;3.38;;
77589;SDS011;66746;51.328;12.332;2023-04-03T14:13:39;3.40;;;2.80;;
77589;SDS011;66746;51.328;12.332;2023-04-03T14:16:07;4.20;;;3.90;;
77589;SDS011;66746;51.328;12.332;2023-04-03T14:18:41;8.13;;;5.32;;
77589;SDS011;66746;51.328;12.332;2023-04-03T14:21:09;7.97;;;5.15;;
77589;SDS011;66746;51.328;12.332;2023-04-03T14:23:36;14.95;;;7.88;;
77589;SDS011;66746;51.328;12.332;2023-04-03T14:26:04;5.15;;;3.95;;
77589;SDS011;66746;51.328;12.332;2023-04-03T14:28:31;8.40;;;5.28;;
77589;SDS011;66746;51.328;12.332;2023-04-03T14:30:58;5.07;;;4.28;;
77589;SDS011;66746;51.328;12.332;2023-04-03T14:33:26;4.75;;;4.32;;
77589;SDS011;66746;51.328;12.332;2023-04-03T14:35:52;10.95;;;5.85;;
77589;SDS011;66746;51.328;12.332;2023-04-03T14:38:23;10.65;;;6.43;;
77589;SDS011;66746;51.328;12.332;2023-04-03T14:40:51;5.80;;;4.10;;
77589;SDS011;66746;51.328;12.332;2023-04-03T14:43:22;17.67;;;10.38;;
77589;SDS011;66746;51.328;12.332;2023-04-03T14:45:48;7.85;;;3.90;;
77589;SDS011;66746;51.328;12.332;2023-04-03T14:48:17;27.25;;;15.52;;
77589;SDS011;66746;51.328;12.332;2023-04-03T14:50:47;7.88;;;6.15;;
77589;SDS011;66746;51.328;12.332;2023-04-03T14:53:31;3.95;;;3.63;;
77589;SDS011;66746;51.328;12.332;2023-04-03T14:56:05;4.65;;;4.05;;
77589;SDS011;66746;51.328;12.332;2023-04-03T14:58:37;27.30;;;18.13;;
77589;SDS011;66746;51.328;12.332;2023-04-03T15:01:03;22.25;;;15.25;;
77589;SDS011;66746;51.328;12.332;2023-04-03T15:03:30;5.75;;;5.25;;
77589;SDS011;66746;51.328;12.332;2023-04-03T15:05:58;4.97;;;3.58;;
77589;SDS011;66746;51.328;12.332;2023-04-03T15:08:25;4.53;;;3.80;;
77589;SDS011;66746;51.328;12.332;2023-04-03T15:10:53;5.47;;;3.70;;
77589;SDS011;66746;51.328;12.332;2023-04-03T15:13:19;2.92;;;2.65;;
77589;SDS011;66746;51.328;12.332;2023-04-03T15:15:46;3.28;;;2.47;;